WetterOnline ( https://www.wetteronline.de )

Wetter aktuell Delbrück

Aktuelles Wetter: Bad Lippspringe (158m)

6-stündlich | Neueste Meldungen
Ortszeit Temperatur Wetter
Mi, 28.07. 20:00 21.3° C leicht bewölkt
Mi, 28.07. 14:00 19.3° C bedeckt
Mi, 28.07. 8:00 16.7° C bedeckt
Mi, 28.07. 2:00 15.4° C leicht bewölkt
Di, 27.07. 20:00 17.9° C Sprühregen
Di, 27.07. 14:00 23.1° C wolkig
Di, 27.07. 8:00 17.8° C bedeckt
Di, 27.07. 2:00 16.9° C wolkig
Ortszeit Temperatur Wetter
Do, 29.07. 1:30 15.6° C wolkig
Do, 29.07. 1:20 15.6° C wolkig
Do, 29.07. 1:10 15.7° C bewölkt
Do, 29.07. 1:00 15.8° C leicht bewölkt
Do, 29.07. 0:50 15.8° C leicht bewölkt
Do, 29.07. 0:40 15.7° C leicht bewölkt
Do, 29.07. 0:30 16.1° C wolkig
Do, 29.07. 0:00 17.6° C leicht bewölkt
Mi, 28.07. 23:30 18.1° C bedeckt
Mi, 28.07. 23:00 16.2° C bewölkt
Mi, 28.07. 22:30 16.0° C fast wolkenlos
Ortszeit Relative Feuchte Sichtweite
Mi, 28.07. 20:00 53% 65 km
Mi, 28.07. 14:00 67% 65 km
Mi, 28.07. 8:00 81% 45 km
Mi, 28.07. 2:00 92% 40 km
Di, 27.07. 20:00 90% 30 km
Di, 27.07. 14:00 57% 45 km
Di, 27.07. 8:00 83% 35 km
Di, 27.07. 2:00 86% 60 km
Ortszeit Relative Feuchte Sichtweite
Do, 29.07. 1:30 77% 65 km
Do, 29.07. 1:20 77% -
Do, 29.07. 1:10 76% -
Do, 29.07. 1:00 75% >70 km
Do, 29.07. 0:50 75% -
Do, 29.07. 0:40 76% -
Do, 29.07. 0:30 75% >70 km
Do, 29.07. 0:00 66% 65 km
Mi, 28.07. 23:30 65% >70 km
Mi, 28.07. 23:00 77% 65 km
Mi, 28.07. 22:30 78% 60 km
Ortszeit Niederschlagsmenge Niederschlagsart
Mi, 28.07. 20:00 0.1 l/m2 in 12 Std. Regen
Mi, 28.07. 14:00 0.1 l/m2 in 6 Std. Regen
Mi, 28.07. 8:00 0.2 l/m2 in 12 Std. -
Mi, 28.07. 2:00 0.2 l/m2 in 6 Std. Regen
Di, 27.07. 20:00 0.7 l/m2 in 12 Std. Regen
Di, 27.07. 14:00 0.0 l/m2 in 6 Std. -
Di, 27.07. 8:00 0.0 l/m2 in 12 Std. -
Di, 27.07. 2:00 0.0 l/m2 in 6 Std. -
Ortszeit Niederschlagsmenge Niederschlagsart
Do, 29.07. 1:30 0.0 l/m2 in 1 Std. -
Do, 29.07. 1:20 keine Meldung -
Do, 29.07. 1:10 keine Meldung -
Do, 29.07. 1:00 0.0 l/m2 in 1 Std. -
Do, 29.07. 0:50 keine Meldung -
Do, 29.07. 0:40 keine Meldung -
Do, 29.07. 0:30 0.0 l/m2 in 1 Std. -
Do, 29.07. 0:00 0.0 l/m2 in 1 Std. -
Mi, 28.07. 23:30 0.0 l/m2 in 1 Std. -
Mi, 28.07. 23:00 0.0 l/m2 in 1 Std. -
Mi, 28.07. 22:30 0.0 l/m2 in 1 Std. -
Ortszeit Stärke Spitze Richtung
km/h Bft. km/h Grad Sektor
Mi, 28.07. 20:00 17 3 43 280° W
Mi, 28.07. 14:00 18 3 43 280° W
Mi, 28.07. 8:00 9 2 17 220° SW
Mi, 28.07. 2:00 6 1 17 160° S
Di, 27.07. 20:00 0 0 40 - -
Di, 27.07. 14:00 9 2 26 250° W
Di, 27.07. 8:00 7 2 11 210° SW
Di, 27.07. 2:00 6 1 22 140° SO
Ortszeit Stärke Spitze Richtung
km/h Bft. km/h Grad Sektor
Do, 29.07. 1:30 7 2 11 200° S
Do, 29.07. 1:20 7 2 - 200° S
Do, 29.07. 1:10 7 2 - 200° S
Do, 29.07. 1:00 7 2 11 200° S
Do, 29.07. 0:50 7 2 - 200° S
Do, 29.07. 0:40 7 2 - 210° SW
Do, 29.07. 0:30 7 2 11 200° S
Do, 29.07. 0:00 7 2 20 230° SW
Mi, 28.07. 23:30 11 2 22 230° SW
Mi, 28.07. 23:00 6 1 13 190° S
Mi, 28.07. 22:30 9 2 11 160° S
Ortszeit Untergrenze Bedeckung Gattung
total tief tief mittel hoch
Mi, 28.07. 20:00 2100 m 3/8 3/8 - - -
Mi, 28.07. 14:00 1050 m 8/8 8/8 - - -
Mi, 28.07. 8:00 930 m 8/8 8/8 - - -
Mi, 28.07. 2:00 3300 m 5/8 1/8 - - -
Di, 27.07. 20:00 2100 m 6/8 5/8 - - -
Di, 27.07. 14:00 1320 m 6/8 6/8 - - -
Di, 27.07. 8:00 510 m 8/8 8/8 - - -
Di, 27.07. 2:00 1500 m 5/8 5/8 - - -
Ortszeit Bedeckungsgrad in Achtel und Wolkenuntergrenze
Do, 29.07. 1:30 1(2100m) 6(2700m)
Do, 29.07. 1:20 1(2100m) 6(2700m)
Do, 29.07. 1:10 7(2700m)
Do, 29.07. 1:00 4(2700m)
Do, 29.07. 0:50 4(2700m)
Do, 29.07. 0:40 4(2700m)
Do, 29.07. 0:30 6(2700m)
Do, 29.07. 0:00 1(1470m) 4(2400m)
Mi, 28.07. 23:30 2(1470m) 8(2100m) 8(2700m)
Mi, 28.07. 23:00 2(1500m) 7(2700m) 7(2700m)
Mi, 28.07. 22:30 1(1500m) 2(3000m)
Ortszeit Luftdruck NN (hPa) Tendenz (hPa in 3 Std.)
Mi, 28.07. 20:00 1010 + 0,3
Mi, 28.07. 14:00 1011 + 0,2
Mi, 28.07. 8:00 1011 - 0,2
Mi, 28.07. 2:00 1012 - 0,4
Di, 27.07. 20:00 1012 + 1,2
Di, 27.07. 14:00 1012 - 0,4
Di, 27.07. 8:00 1012 + 0,5
Di, 27.07. 2:00 1012 + 0,7
Ortszeit Luftdruck NN (hPa) Tendenz (hPa in 3 Std.)
Do, 29.07. 1:30 1011 + 0,1
Do, 29.07. 1:20 1011 keine Meldung
Do, 29.07. 1:10 1011 keine Meldung
Do, 29.07. 1:00 1011 + 0,2
Do, 29.07. 0:50 1011 keine Meldung
Do, 29.07. 0:40 1011 keine Meldung
Do, 29.07. 0:30 1011 + 0,5
Do, 29.07. 0:00 1011 + 0,5
Mi, 28.07. 23:30 1011 + 0,6
Mi, 28.07. 23:00 1011 + 0,6
Mi, 28.07. 22:30 1011 + 0,6
Ortszeit Schneehöhe (cm)
Mi, 28.07. 20:00 -
Mi, 28.07. 14:00 -
Mi, 28.07. 8:00 -
Mi, 28.07. 2:00 -
Di, 27.07. 20:00 -
Di, 27.07. 14:00 -
Di, 27.07. 8:00 -
Di, 27.07. 2:00 -
Ortszeit Schneehöhe (cm)
Do, 29.07. 1:30 -
Do, 29.07. 1:20 -
Do, 29.07. 1:10 -
Do, 29.07. 1:00 -
Do, 29.07. 0:50 -
Do, 29.07. 0:40 -
Do, 29.07. 0:30 -
Do, 29.07. 0:00 -
Mi, 28.07. 23:30 -
Mi, 28.07. 23:00 -
Mi, 28.07. 22:30 -
Link zu dieser Seite / Seite empfehlen

Das Wetter in ...